sensor_id;sensor_type;location;lat;lon;timestamp;temperature;humidity
7232;DHT22;3657;49.630;11.018;2023-06-14T00:01:39;21.80;48.10
7232;DHT22;3657;49.630;11.018;2023-06-14T00:04:05;21.80;48.10
7232;DHT22;3657;49.630;11.018;2023-06-14T00:06:34;21.80;48.20
7232;DHT22;3657;49.630;11.018;2023-06-14T00:09:02;21.70;48.20
7232;DHT22;3657;49.630;11.018;2023-06-14T00:11:30;21.70;48.30
7232;DHT22;3657;49.630;11.018;2023-06-14T00:13:57;21.70;48.40
7232;DHT22;3657;49.630;11.018;2023-06-14T00:16:23;21.60;48.20
7232;DHT22;3657;49.630;11.018;2023-06-14T00:18:50;21.60;48.30
7232;DHT22;3657;49.630;11.018;2023-06-14T00:21:18;21.50;48.40
7232;DHT22;3657;49.630;11.018;2023-06-14T00:23:46;21.50;48.50
7232;DHT22;3657;49.630;11.018;2023-06-14T00:26:14;21.50;48.50
7232;DHT22;3657;49.630;11.018;2023-06-14T00:28:40;21.40;48.50
7232;DHT22;3657;49.630;11.018;2023-06-14T00:31:07;21.40;48.40
7232;DHT22;3657;49.630;11.018;2023-06-14T00:33:34;21.30;48.50
7232;DHT22;3657;49.630;11.018;2023-06-14T00:36:00;21.30;48.60
7232;DHT22;3657;49.630;11.018;2023-06-14T00:38:27;21.30;48.60
7232;DHT22;3657;49.630;11.018;2023-06-14T00:40:54;21.20;48.60
7232;DHT22;3657;49.630;11.018;2023-06-14T00:43:22;21.20;49.20
7232;DHT22;3657;49.630;11.018;2023-06-14T00:45:48;21.20;48.80
7232;DHT22;3657;49.630;11.018;2023-06-14T00:48:17;21.10;48.80
7232;DHT22;3657;49.630;11.018;2023-06-14T00:50:44;21.00;48.90
7232;DHT22;3657;49.630;11.018;2023-06-14T00:53:14;21.00;48.90
7232;DHT22;3657;49.630;11.018;2023-06-14T00:55:42;21.10;49.00
7232;DHT22;3657;49.630;11.018;2023-06-14T00:58:09;21.00;48.90
7232;DHT22;3657;49.630;11.018;2023-06-14T01:00:38;20.90;49.00
7232;DHT22;3657;49.630;11.018;2023-06-14T01:03:05;20.90;49.00
7232;DHT22;3657;49.630;11.018;2023-06-14T01:05:31;20.80;49.10
7232;DHT22;3657;49.630;11.018;2023-06-14T01:08:08;20.80;49.10
7232;DHT22;3657;49.630;11.018;2023-06-14T01:10:45;20.80;49.10
7232;DHT22;3657;49.630;11.018;2023-06-14T01:13:19;20.70;49.10
7232;DHT22;3657;49.630;11.018;2023-06-14T01:15:48;20.70;49.20
7232;DHT22;3657;49.630;11.018;2023-06-14T01:18:16;20.60;49.30
7232;DHT22;3657;49.630;11.018;2023-06-14T01:20:44;20.60;49.20
7232;DHT22;3657;49.630;11.018;2023-06-14T01:23:16;20.60;49.30
7232;DHT22;3657;49.630;11.018;2023-06-14T01:25:43;20.50;49.30
7232;DHT22;3657;49.630;11.018;2023-06-14T01:28:10;20.60;49.40
7232;DHT22;3657;49.630;11.018;2023-06-14T01:30:40;20.40;49.20
7232;DHT22;3657;49.630;11.018;2023-06-14T01:33:08;20.40;49.40
7232;DHT22;3657;49.630;11.018;2023-06-14T01:35:35;20.40;49.40
7232;DHT22;3657;49.630;11.018;2023-06-14T01:38:02;20.40;49.50
7232;DHT22;3657;49.630;11.018;2023-06-14T01:40:32;20.30;49.40
7232;DHT22;3657;49.630;11.018;2023-06-14T01:42:59;20.30;49.40
7232;DHT22;3657;49.630;11.018;2023-06-14T01:45:27;20.20;49.40
7232;DHT22;3657;49.630;11.018;2023-06-14T01:47:55;20.20;49.50
7232;DHT22;3657;49.630;11.018;2023-06-14T01:50:22;20.20;49.70
7232;DHT22;3657;49.630;11.018;2023-06-14T01:52:49;20.10;50.00
7232;DHT22;3657;49.630;11.018;2023-06-14T01:55:16;20.10;49.70
7232;DHT22;3657;49.630;11.018;2023-06-14T01:57:44;20.10;49.80
7232;DHT22;3657;49.630;11.018;2023-06-14T02:00:12;20.00;49.70
7232;DHT22;3657;49.630;11.018;2023-06-14T02:02:40;20.00;49.80
7232;DHT22;3657;49.630;11.018;2023-06-14T02:05:06;19.90;49.80
7232;DHT22;3657;49.630;11.018;2023-06-14T02:07:34;19.90;49.80
7232;DHT22;3657;49.630;11.018;2023-06-14T02:10:01;19.90;49.90
7232;DHT22;3657;49.630;11.018;2023-06-14T02:12:27;19.80;49.90
7232;DHT22;3657;49.630;11.018;2023-06-14T02:14:55;19.80;50.00
7232;DHT22;3657;49.630;11.018;2023-06-14T02:17:22;19.80;49.90
7232;DHT22;3657;49.630;11.018;2023-06-14T02:19:49;19.80;50.00
7232;DHT22;3657;49.630;11.018;2023-06-14T02:22:16;19.70;50.00
7232;DHT22;3657;49.630;11.018;2023-06-14T02:24:43;19.60;49.90
7232;DHT22;3657;49.630;11.018;2023-06-14T02:27:10;19.60;50.00
7232;DHT22;3657;49.630;11.018;2023-06-14T02:29:37;19.60;50.00
7232;DHT22;3657;49.630;11.018;2023-06-14T02:32:06;19.50;50.00
7232;DHT22;3657;49.630;11.018;2023-06-14T02:34:33;19.50;50.10
7232;DHT22;3657;49.630;11.018;2023-06-14T02:37:00;19.50;50.10
7232;DHT22;3657;49.630;11.018;2023-06-14T02:39:28;19.40;50.10
7232;DHT22;3657;49.630;11.018;2023-06-14T02:41:54;19.40;50.20
7232;DHT22;3657;49.630;11.018;2023-06-14T02:44:24;19.40;50.30
7232;DHT22;3657;49.630;11.018;2023-06-14T02:46:52;19.30;50.30
7232;DHT22;3657;49.630;11.018;2023-06-14T02:49:20;19.30;50.20
7232;DHT22;3657;49.630;11.018;2023-06-14T02:51:47;19.30;50.40
7232;DHT22;3657;49.630;11.018;2023-06-14T02:54:13;19.20;50.40
7232;DHT22;3657;49.630;11.018;2023-06-14T02:56:40;19.20;50.50
7232;DHT22;3657;49.630;11.018;2023-06-14T02:59:07;19.10;50.30
7232;DHT22;3657;49.630;11.018;2023-06-14T03:01:34;19.10;50.40
7232;DHT22;3657;49.630;11.018;2023-06-14T03:04:06;19.10;50.50
7232;DHT22;3657;49.630;11.018;2023-06-14T03:06:34;19.10;50.50
7232;DHT22;3657;49.630;11.018;2023-06-14T03:09:02;19.00;50.40
7232;DHT22;3657;49.630;11.018;2023-06-14T03:11:29;19.00;50.40
7232;DHT22;3657;49.630;11.018;2023-06-14T03:13:56;19.00;50.60
7232;DHT22;3657;49.630;11.018;2023-06-14T03:16:23;18.90;50.50
7232;DHT22;3657;49.630;11.018;2023-06-14T03:18:53;18.90;50.50
7232;DHT22;3657;49.630;11.018;2023-06-14T03:21:19;18.90;50.50
7232;DHT22;3657;49.630;11.018;2023-06-14T03:23:48;18.80;50.60
7232;DHT22;3657;49.630;11.018;2023-06-14T03:26:15;18.80;50.70
7232;DHT22;3657;49.630;11.018;2023-06-14T03:28:43;18.80;50.70
7232;DHT22;3657;49.630;11.018;2023-06-14T03:31:10;18.70;50.60
7232;DHT22;3657;49.630;11.018;2023-06-14T03:33:37;18.70;50.70
7232;DHT22;3657;49.630;11.018;2023-06-14T03:36:04;18.70;50.80
7232;DHT22;3657;49.630;11.018;2023-06-14T03:38:31;18.70;50.80
7232;DHT22;3657;49.630;11.018;2023-06-14T03:40:59;18.60;50.80
7232;DHT22;3657;49.630;11.018;2023-06-14T03:43:26;18.60;50.80
7232;DHT22;3657;49.630;11.018;2023-06-14T03:45:53;18.60;50.90
7232;DHT22;3657;49.630;11.018;2023-06-14T03:48:20;18.50;50.80
7232;DHT22;3657;49.630;11.018;2023-06-14T03:50:46;18.50;50.90
7232;DHT22;3657;49.630;11.018;2023-06-14T03:53:13;18.50;50.90
7232;DHT22;3657;49.630;11.018;2023-06-14T03:55:40;18.50;50.90
7232;DHT22;3657;49.630;11.018;2023-06-14T03:58:08;18.40;50.80
7232;DHT22;3657;49.630;11.018;2023-06-14T04:00:35;18.40;50.80
7232;DHT22;3657;49.630;11.018;2023-06-14T04:03:01;18.40;50.80
7232;DHT22;3657;49.630;11.018;2023-06-14T04:05:31;18.40;50.90
7232;DHT22;3657;49.630;11.018;2023-06-14T04:07:57;18.30;50.80
7232;DHT22;3657;49.630;11.018;2023-06-14T04:10:26;18.30;51.50
7232;DHT22;3657;49.630;11.018;2023-06-14T04:12:53;18.30;51.00
7232;DHT22;3657;49.630;11.018;2023-06-14T04:15:21;18.20;51.20
7232;DHT22;3657;49.630;11.018;2023-06-14T04:17:48;18.20;51.00
7232;DHT22;3657;49.630;11.018;2023-06-14T04:20:15;18.10;53.80
7232;DHT22;3657;49.630;11.018;2023-06-14T04:22:42;18.10;51.40
7232;DHT22;3657;49.630;11.018;2023-06-14T04:25:09;18.10;51.20
7232;DHT22;3657;49.630;11.018;2023-06-14T04:27:37;18.10;51.20
7232;DHT22;3657;49.630;11.018;2023-06-14T04:30:05;18.10;51.20
7232;DHT22;3657;49.630;11.018;2023-06-14T04:32:34;18.10;51.30
7232;DHT22;3657;49.630;11.018;2023-06-14T04:35:05;17.80;53.30
7232;DHT22;3657;49.630;11.018;2023-06-14T04:37:32;17.90;51.60
7232;DHT22;3657;49.630;11.018;2023-06-14T04:40:00;18.00;52.80
7232;DHT22;3657;49.630;11.018;2023-06-14T04:42:30;17.60;53.70
7232;DHT22;3657;49.630;11.018;2023-06-14T04:44:57;17.60;55.00
7232;DHT22;3657;49.630;11.018;2023-06-14T04:47:24;17.50;52.90
7232;DHT22;3657;49.630;11.018;2023-06-14T04:49:56;17.60;52.70
7232;DHT22;3657;49.630;11.018;2023-06-14T04:52:23;17.70;52.10
7232;DHT22;3657;49.630;11.018;2023-06-14T04:54:51;17.80;52.40
7232;DHT22;3657;49.630;11.018;2023-06-14T04:57:19;17.90;52.10
7232;DHT22;3657;49.630;11.018;2023-06-14T04:59:47;17.90;52.60
7232;DHT22;3657;49.630;11.018;2023-06-14T05:02:14;17.80;54.40
7232;DHT22;3657;49.630;11.018;2023-06-14T05:04:41;17.80;52.80
7232;DHT22;3657;49.630;11.018;2023-06-14T05:07:09;17.90;55.40
7232;DHT22;3657;49.630;11.018;2023-06-14T05:09:36;17.70;56.00
7232;DHT22;3657;49.630;11.018;2023-06-14T05:12:03;17.60;56.60
7232;DHT22;3657;49.630;11.018;2023-06-14T05:14:30;17.80;53.80
7232;DHT22;3657;49.630;11.018;2023-06-14T05:16:57;17.80;54.30
7232;DHT22;3657;49.630;11.018;2023-06-14T05:19:23;18.00;54.40
7232;DHT22;3657;49.630;11.018;2023-06-14T05:21:50;18.00;56.40
7232;DHT22;3657;49.630;11.018;2023-06-14T05:24:19;18.20;55.00
7232;DHT22;3657;49.630;11.018;2023-06-14T05:26:46;18.20;55.80
7232;DHT22;3657;49.630;11.018;2023-06-14T05:29:14;18.40;55.80
7232;DHT22;3657;49.630;11.018;2023-06-14T05:31:40;18.40;54.30
7232;DHT22;3657;49.630;11.018;2023-06-14T05:34:07;18.50;55.00
7232;DHT22;3657;49.630;11.018;2023-06-14T05:36:34;18.70;55.40
7232;DHT22;3657;49.630;11.018;2023-06-14T05:39:02;18.80;55.10
7232;DHT22;3657;49.630;11.018;2023-06-14T05:41:31;19.00;56.40
7232;DHT22;3657;49.630;11.018;2023-06-14T05:43:58;19.20;55.10
7232;DHT22;3657;49.630;11.018;2023-06-14T05:46:25;19.10;57.40
7232;DHT22;3657;49.630;11.018;2023-06-14T05:48:52;19.50;54.30
7232;DHT22;3657;49.630;11.018;2023-06-14T05:51:19;19.80;54.20
7232;DHT22;3657;49.630;11.018;2023-06-14T05:53:46;19.70;55.20
7232;DHT22;3657;49.630;11.018;2023-06-14T05:56:13;19.20;57.60
7232;DHT22;3657;49.630;11.018;2023-06-14T05:58:41;19.10;55.90
7232;DHT22;3657;49.630;11.018;2023-06-14T06:01:08;19.10;57.30
7232;DHT22;3657;49.630;11.018;2023-06-14T06:03:35;19.00;57.90
7232;DHT22;3657;49.630;11.018;2023-06-14T06:06:01;19.10;55.80
7232;DHT22;3657;49.630;11.018;2023-06-14T06:08:29;19.40;54.50
7232;DHT22;3657;49.630;11.018;2023-06-14T06:10:56;19.60;54.80
7232;DHT22;3657;49.630;11.018;2023-06-14T06:13:23;19.70;57.20
7232;DHT22;3657;49.630;11.018;2023-06-14T06:15:51;18.90;58.60
7232;DHT22;3657;49.630;11.018;2023-06-14T06:18:18;18.60;59.30
7232;DHT22;3657;49.630;11.018;2023-06-14T06:20:44;18.60;59.60
7232;DHT22;3657;49.630;11.018;2023-06-14T06:23:12;18.60;59.40
7232;DHT22;3657;49.630;11.018;2023-06-14T06:25:39;18.70;56.80
7232;DHT22;3657;49.630;11.018;2023-06-14T06:28:06;18.90;58.10
7232;DHT22;3657;49.630;11.018;2023-06-14T06:30:33;18.90;56.90
7232;DHT22;3657;49.630;11.018;2023-06-14T06:33:02;19.10;58.50
7232;DHT22;3657;49.630;11.018;2023-06-14T06:35:29;19.50;57.10
7232;DHT22;3657;49.630;11.018;2023-06-14T06:37:58;19.90;56.40
7232;DHT22;3657;49.630;11.018;2023-06-14T06:40:25;19.80;56.70
7232;DHT22;3657;49.630;11.018;2023-06-14T06:42:52;20.00;56.50
7232;DHT22;3657;49.630;11.018;2023-06-14T06:45:18;20.50;56.10
7232;DHT22;3657;49.630;11.018;2023-06-14T06:47:45;20.90;56.00
7232;DHT22;3657;49.630;11.018;2023-06-14T06:50:13;21.00;56.40
7232;DHT22;3657;49.630;11.018;2023-06-14T06:52:41;20.60;57.20
7232;DHT22;3657;49.630;11.018;2023-06-14T06:55:08;20.60;57.50
7232;DHT22;3657;49.630;11.018;2023-06-14T06:57:36;20.90;57.00
7232;DHT22;3657;49.630;11.018;2023-06-14T07:00:04;21.30;56.90
7232;DHT22;3657;49.630;11.018;2023-06-14T07:02:33;21.70;56.90
7232;DHT22;3657;49.630;11.018;2023-06-14T07:05:00;21.80;56.30
7232;DHT22;3657;49.630;11.018;2023-06-14T07:07:28;21.70;56.30
7232;DHT22;3657;49.630;11.018;2023-06-14T07:09:54;21.60;56.60
7232;DHT22;3657;49.630;11.018;2023-06-14T07:12:22;21.60;56.30
7232;DHT22;3657;49.630;11.018;2023-06-14T07:14:49;21.60;56.10
7232;DHT22;3657;49.630;11.018;2023-06-14T07:17:16;22.00;56.20
7232;DHT22;3657;49.630;11.018;2023-06-14T07:19:42;22.60;55.40
7232;DHT22;3657;49.630;11.018;2023-06-14T07:22:09;22.60;55.20
7232;DHT22;3657;49.630;11.018;2023-06-14T07:24:37;22.50;55.00
7232;DHT22;3657;49.630;11.018;2023-06-14T07:27:06;22.80;55.50
7232;DHT22;3657;49.630;11.018;2023-06-14T07:29:33;23.10;55.00
7232;DHT22;3657;49.630;11.018;2023-06-14T07:32:00;22.90;55.20
7232;DHT22;3657;49.630;11.018;2023-06-14T07:34:27;23.40;55.30
7232;DHT22;3657;49.630;11.018;2023-06-14T07:36:53;23.60;54.70
7232;DHT22;3657;49.630;11.018;2023-06-14T07:39:20;23.40;54.60
7232;DHT22;3657;49.630;11.018;2023-06-14T07:41:49;23.80;54.10
7232;DHT22;3657;49.630;11.018;2023-06-14T07:44:15;23.50;54.40
7232;DHT22;3657;49.630;11.018;2023-06-14T07:46:42;24.10;54.40
7232;DHT22;3657;49.630;11.018;2023-06-14T07:49:11;24.60;53.90
7232;DHT22;3657;49.630;11.018;2023-06-14T07:51:38;25.00;54.30
7232;DHT22;3657;49.630;11.018;2023-06-14T07:54:05;25.40;53.20
7232;DHT22;3657;49.630;11.018;2023-06-14T07:56:32;25.40;52.60
7232;DHT22;3657;49.630;11.018;2023-06-14T07:59:01;24.90;52.50
7232;DHT22;3657;49.630;11.018;2023-06-14T08:01:27;24.60;52.20
7232;DHT22;3657;49.630;11.018;2023-06-14T08:03:54;24.30;52.70
7232;DHT22;3657;49.630;11.018;2023-06-14T08:06:21;23.80;53.00
7232;DHT22;3657;49.630;11.018;2023-06-14T08:08:48;23.70;52.40
7232;DHT22;3657;49.630;11.018;2023-06-14T08:11:14;23.60;54.10
7232;DHT22;3657;49.630;11.018;2023-06-14T08:13:41;23.50;53.70
7232;DHT22;3657;49.630;11.018;2023-06-14T08:16:09;23.90;54.00
7232;DHT22;3657;49.630;11.018;2023-06-14T08:18:36;24.00;52.30
7232;DHT22;3657;49.630;11.018;2023-06-14T08:21:03;23.50;51.30
7232;DHT22;3657;49.630;11.018;2023-06-14T08:23:30;23.40;53.60
7232;DHT22;3657;49.630;11.018;2023-06-14T08:25:56;23.60;52.80
7232;DHT22;3657;49.630;11.018;2023-06-14T08:28:24;24.00;52.10
7232;DHT22;3657;49.630;11.018;2023-06-14T08:30:51;24.20;51.70
7232;DHT22;3657;49.630;11.018;2023-06-14T08:33:19;24.70;51.20
7232;DHT22;3657;49.630;11.018;2023-06-14T08:35:45;24.90;50.20
7232;DHT22;3657;49.630;11.018;2023-06-14T08:38:12;24.90;49.60
7232;DHT22;3657;49.630;11.018;2023-06-14T08:40:40;25.10;50.70
7232;DHT22;3657;49.630;11.018;2023-06-14T08:43:07;25.20;51.10
7232;DHT22;3657;49.630;11.018;2023-06-14T08:45:34;25.80;50.00
7232;DHT22;3657;49.630;11.018;2023-06-14T08:48:01;26.60;51.30
7232;DHT22;3657;49.630;11.018;2023-06-14T08:50:31;26.70;51.30
7232;DHT22;3657;49.630;11.018;2023-06-14T08:53:01;26.50;48.90
7232;DHT22;3657;49.630;11.018;2023-06-14T08:55:29;26.70;48.20
7232;DHT22;3657;49.630;11.018;2023-06-14T08:57:57;26.80;48.50
7232;DHT22;3657;49.630;11.018;2023-06-14T09:00:25;26.70;49.80
7232;DHT22;3657;49.630;11.018;2023-06-14T09:02:52;27.00;49.20
7232;DHT22;3657;49.630;11.018;2023-06-14T09:05:23;26.60;48.00
7232;DHT22;3657;49.630;11.018;2023-06-14T09:07:51;26.10;48.70
7232;DHT22;3657;49.630;11.018;2023-06-14T09:10:21;26.00;49.70
7232;DHT22;3657;49.630;11.018;2023-06-14T09:12:48;26.40;50.90
7232;DHT22;3657;49.630;11.018;2023-06-14T09:15:15;26.60;49.30
7232;DHT22;3657;49.630;11.018;2023-06-14T09:17:42;25.80;48.60
7232;DHT22;3657;49.630;11.018;2023-06-14T09:20:10;25.50;50.20
7232;DHT22;3657;49.630;11.018;2023-06-14T09:22:39;25.20;50.70
7232;DHT22;3657;49.630;11.018;2023-06-14T09:25:08;25.70;52.40
7232;DHT22;3657;49.630;11.018;2023-06-14T09:27:35;25.90;51.60
7232;DHT22;3657;49.630;11.018;2023-06-14T09:30:06;26.10;51.40
7232;DHT22;3657;49.630;11.018;2023-06-14T09:32:36;26.00;50.50
7232;DHT22;3657;49.630;11.018;2023-06-14T09:35:04;26.20;51.60
7232;DHT22;3657;49.630;11.018;2023-06-14T09:37:32;26.30;51.10
7232;DHT22;3657;49.630;11.018;2023-06-14T09:39:59;26.40;48.70
7232;DHT22;3657;49.630;11.018;2023-06-14T09:42:27;26.20;51.30
7232;DHT22;3657;49.630;11.018;2023-06-14T09:44:56;26.30;49.00
7232;DHT22;3657;49.630;11.018;2023-06-14T09:47:23;25.90;49.40
7232;DHT22;3657;49.630;11.018;2023-06-14T09:49:51;25.90;48.50
7232;DHT22;3657;49.630;11.018;2023-06-14T09:52:21;26.10;51.40
7232;DHT22;3657;49.630;11.018;2023-06-14T09:54:48;26.30;50.90
7232;DHT22;3657;49.630;11.018;2023-06-14T09:57:16;26.40;50.20
7232;DHT22;3657;49.630;11.018;2023-06-14T09:59:47;26.30;50.40
7232;DHT22;3657;49.630;11.018;2023-06-14T10:02:22;26.30;51.30
7232;DHT22;3657;49.630;11.018;2023-06-14T10:04:57;26.40;51.20
7232;DHT22;3657;49.630;11.018;2023-06-14T10:07:26;26.50;50.30
7232;DHT22;3657;49.630;11.018;2023-06-14T10:09:56;26.00;49.30
7232;DHT22;3657;49.630;11.018;2023-06-14T10:12:24;26.10;48.90
7232;DHT22;3657;49.630;11.018;2023-06-14T10:14:53;25.80;47.90
7232;DHT22;3657;49.630;11.018;2023-06-14T10:17:27;25.60;48.30
7232;DHT22;3657;49.630;11.018;2023-06-14T10:20:06;25.60;49.30
7232;DHT22;3657;49.630;11.018;2023-06-14T10:22:41;25.40;47.60
7232;DHT22;3657;49.630;11.018;2023-06-14T10:25:13;25.60;49.40
7232;DHT22;3657;49.630;11.018;2023-06-14T10:27:45;25.60;48.10
7232;DHT22;3657;49.630;11.018;2023-06-14T10:30:15;25.20;47.70
7232;DHT22;3657;49.630;11.018;2023-06-14T10:33:05;24.90;50.50
7232;DHT22;3657;49.630;11.018;2023-06-14T10:35:33;25.00;48.40
7232;DHT22;3657;49.630;11.018;2023-06-14T10:38:07;25.30;49.90
7232;DHT22;3657;49.630;11.018;2023-06-14T10:40:37;25.20;49.50
7232;DHT22;3657;49.630;11.018;2023-06-14T10:43:23;25.40;48.50
7232;DHT22;3657;49.630;11.018;2023-06-14T10:46:17;25.10;49.30
7232;DHT22;3657;49.630;11.018;2023-06-14T10:48:44;25.40;50.30
7232;DHT22;3657;49.630;11.018;2023-06-14T10:51:20;25.60;50.30
7232;DHT22;3657;49.630;11.018;2023-06-14T10:53:48;26.00;49.90
7232;DHT22;3657;49.630;11.018;2023-06-14T10:56:27;26.50;47.90
7232;DHT22;3657;49.630;11.018;2023-06-14T10:58:54;26.80;49.10
7232;DHT22;3657;49.630;11.018;2023-06-14T11:01:32;26.90;47.90
7232;DHT22;3657;49.630;11.018;2023-06-14T11:04:07;26.50;46.40
7232;DHT22;3657;49.630;11.018;2023-06-14T11:06:45;26.10;48.50
7232;DHT22;3657;49.630;11.018;2023-06-14T11:09:41;25.90;48.50
7232;DHT22;3657;49.630;11.018;2023-06-14T11:12:10;25.50;49.40
7232;DHT22;3657;49.630;11.018;2023-06-14T11:14:38;25.80;47.50
7232;DHT22;3657;49.630;11.018;2023-06-14T11:17:06;26.00;49.80
7232;DHT22;3657;49.630;11.018;2023-06-14T11:19:33;26.00;48.90
7232;DHT22;3657;49.630;11.018;2023-06-14T11:22:00;25.90;48.50
7232;DHT22;3657;49.630;11.018;2023-06-14T11:24:27;25.50;47.90
7232;DHT22;3657;49.630;11.018;2023-06-14T11:26:55;25.20;47.80
7232;DHT22;3657;49.630;11.018;2023-06-14T11:29:22;25.20;48.30
7232;DHT22;3657;49.630;11.018;2023-06-14T11:31:50;25.40;47.90
7232;DHT22;3657;49.630;11.018;2023-06-14T11:34:18;25.40;48.70
7232;DHT22;3657;49.630;11.018;2023-06-14T11:36:45;25.70;49.60
7232;DHT22;3657;49.630;11.018;2023-06-14T11:39:13;26.20;48.10
7232;DHT22;3657;49.630;11.018;2023-06-14T11:41:41;26.50;47.00
7232;DHT22;3657;49.630;11.018;2023-06-14T11:44:09;26.30;48.60
7232;DHT22;3657;49.630;11.018;2023-06-14T11:46:36;26.30;45.80
7232;DHT22;3657;49.630;11.018;2023-06-14T11:49:03;25.80;47.30
7232;DHT22;3657;49.630;11.018;2023-06-14T11:51:34;25.30;48.10
7232;DHT22;3657;49.630;11.018;2023-06-14T11:54:01;25.40;48.10
7232;DHT22;3657;49.630;11.018;2023-06-14T11:56:29;25.90;49.40
7232;DHT22;3657;49.630;11.018;2023-06-14T11:58:56;26.00;48.90
7232;DHT22;3657;49.630;11.018;2023-06-14T12:01:24;26.50;49.10
7232;DHT22;3657;49.630;11.018;2023-06-14T12:03:53;26.20;46.80
7232;DHT22;3657;49.630;11.018;2023-06-14T12:06:26;25.40;46.10
7232;DHT22;3657;49.630;11.018;2023-06-14T12:08:56;25.60;47.40
7232;DHT22;3657;49.630;11.018;2023-06-14T12:11:24;25.60;49.00
7232;DHT22;3657;49.630;11.018;2023-06-14T12:13:54;25.90;48.20
7232;DHT22;3657;49.630;11.018;2023-06-14T12:16:30;26.00;48.20
7232;DHT22;3657;49.630;11.018;2023-06-14T12:19:00;26.50;48.70
7232;DHT22;3657;49.630;11.018;2023-06-14T12:21:27;26.70;47.90
7232;DHT22;3657;49.630;11.018;2023-06-14T12:23:54;26.60;46.70
7232;DHT22;3657;49.630;11.018;2023-06-14T12:26:25;26.30;47.60
7232;DHT22;3657;49.630;11.018;2023-06-14T12:28:53;26.10;47.50
7232;DHT22;3657;49.630;11.018;2023-06-14T12:31:19;25.90;47.00
7232;DHT22;3657;49.630;11.018;2023-06-14T12:33:46;26.30;48.30
7232;DHT22;3657;49.630;11.018;2023-06-14T12:36:14;26.80;48.40
7232;DHT22;3657;49.630;11.018;2023-06-14T12:38:42;27.30;48.30
7232;DHT22;3657;49.630;11.018;2023-06-14T12:41:09;27.80;48.30
7232;DHT22;3657;49.630;11.018;2023-06-14T12:43:37;28.00;46.50
7232;DHT22;3657;49.630;11.018;2023-06-14T12:46:03;27.40;46.90
7232;DHT22;3657;49.630;11.018;2023-06-14T12:48:30;27.50;47.70
7232;DHT22;3657;49.630;11.018;2023-06-14T12:50:57;27.50;46.00
7232;DHT22;3657;49.630;11.018;2023-06-14T12:53:24;27.30;44.40
7232;DHT22;3657;49.630;11.018;2023-06-14T12:55:51;27.10;46.90
7232;DHT22;3657;49.630;11.018;2023-06-14T12:58:17;26.80;46.50
7232;DHT22;3657;49.630;11.018;2023-06-14T13:00:46;26.50;47.80
7232;DHT22;3657;49.630;11.018;2023-06-14T13:03:13;27.10;47.70
7232;DHT22;3657;49.630;11.018;2023-06-14T13:05:39;27.40;45.60
7232;DHT22;3657;49.630;11.018;2023-06-14T13:08:08;27.50;46.30
7232;DHT22;3657;49.630;11.018;2023-06-14T13:10:35;27.90;46.50
7232;DHT22;3657;49.630;11.018;2023-06-14T13:13:02;28.30;44.50
7232;DHT22;3657;49.630;11.018;2023-06-14T13:15:29;28.70;47.40
7232;DHT22;3657;49.630;11.018;2023-06-14T13:17:57;28.80;45.80
7232;DHT22;3657;49.630;11.018;2023-06-14T13:20:24;28.70;47.10
7232;DHT22;3657;49.630;11.018;2023-06-14T13:22:51;29.00;47.60
7232;DHT22;3657;49.630;11.018;2023-06-14T13:25:17;29.10;47.50
7232;DHT22;3657;49.630;11.018;2023-06-14T13:27:44;29.20;47.00
7232;DHT22;3657;49.630;11.018;2023-06-14T13:30:11;29.30;47.30
7232;DHT22;3657;49.630;11.018;2023-06-14T13:32:38;29.50;46.30
7232;DHT22;3657;49.630;11.018;2023-06-14T13:35:07;29.40;46.70
7232;DHT22;3657;49.630;11.018;2023-06-14T13:37:33;28.90;44.50
7232;DHT22;3657;49.630;11.018;2023-06-14T13:40:00;28.90;47.10
7232;DHT22;3657;49.630;11.018;2023-06-14T13:42:28;28.90;47.10
7232;DHT22;3657;49.630;11.018;2023-06-14T13:44:57;28.80;47.10
7232;DHT22;3657;49.630;11.018;2023-06-14T13:47:23;29.10;47.10
7232;DHT22;3657;49.630;11.018;2023-06-14T13:49:50;29.50;46.50
7232;DHT22;3657;49.630;11.018;2023-06-14T13:52:18;29.90;46.60
7232;DHT22;3657;49.630;11.018;2023-06-14T13:54:45;30.10;46.60
7232;DHT22;3657;49.630;11.018;2023-06-14T13:57:11;29.90;45.70
7232;DHT22;3657;49.630;11.018;2023-06-14T13:59:38;29.10;44.30
7232;DHT22;3657;49.630;11.018;2023-06-14T14:02:05;28.50;46.20
7232;DHT22;3657;49.630;11.018;2023-06-14T14:04:33;28.40;46.30
7232;DHT22;3657;49.630;11.018;2023-06-14T14:07:00;28.50;46.80
7232;DHT22;3657;49.630;11.018;2023-06-14T14:09:28;28.60;46.60
7232;DHT22;3657;49.630;11.018;2023-06-14T14:11:54;28.40;47.00
7232;DHT22;3657;49.630;11.018;2023-06-14T14:14:21;28.80;47.10
7232;DHT22;3657;49.630;11.018;2023-06-14T14:16:49;29.00;46.00
7232;DHT22;3657;49.630;11.018;2023-06-14T14:19:16;29.10;46.60
7232;DHT22;3657;49.630;11.018;2023-06-14T14:21:44;29.10;46.30
7232;DHT22;3657;49.630;11.018;2023-06-14T14:24:11;29.20;46.40
7232;DHT22;3657;49.630;11.018;2023-06-14T14:26:39;29.30;46.40
7232;DHT22;3657;49.630;11.018;2023-06-14T14:29:06;29.30;46.00
7232;DHT22;3657;49.630;11.018;2023-06-14T14:31:32;29.40;46.60
7232;DHT22;3657;49.630;11.018;2023-06-14T14:33:59;29.50;46.10
7232;DHT22;3657;49.630;11.018;2023-06-14T14:36:26;29.40;46.30
7232;DHT22;3657;49.630;11.018;2023-06-14T14:38:52;29.50;46.20
7232;DHT22;3657;49.630;11.018;2023-06-14T14:41:19;29.30;45.30
7232;DHT22;3657;49.630;11.018;2023-06-14T14:43:47;29.10;44.70
7232;DHT22;3657;49.630;11.018;2023-06-14T14:46:14;28.90;46.20
7232;DHT22;3657;49.630;11.018;2023-06-14T14:48:42;28.30;45.20
7232;DHT22;3657;49.630;11.018;2023-06-14T14:51:09;28.20;44.40
7232;DHT22;3657;49.630;11.018;2023-06-14T14:53:35;26.90;45.10
7232;DHT22;3657;49.630;11.018;2023-06-14T14:56:02;27.00;47.50
7232;DHT22;3657;49.630;11.018;2023-06-14T14:58:29;27.30;46.80
7232;DHT22;3657;49.630;11.018;2023-06-14T15:00:57;27.40;46.10
7232;DHT22;3657;49.630;11.018;2023-06-14T15:03:23;27.60;45.90
7232;DHT22;3657;49.630;11.018;2023-06-14T15:05:50;27.40;45.10
7232;DHT22;3657;49.630;11.018;2023-06-14T15:08:17;27.20;45.60
7232;DHT22;3657;49.630;11.018;2023-06-14T15:10:43;26.90;46.10
7232;DHT22;3657;49.630;11.018;2023-06-14T15:13:11;27.30;47.20
7232;DHT22;3657;49.630;11.018;2023-06-14T15:15:37;27.50;46.10
7232;DHT22;3657;49.630;11.018;2023-06-14T15:18:05;27.00;46.00
7232;DHT22;3657;49.630;11.018;2023-06-14T15:20:32;26.60;46.80
7232;DHT22;3657;49.630;11.018;2023-06-14T15:22:59;26.50;47.00
7232;DHT22;3657;49.630;11.018;2023-06-14T15:25:26;26.30;47.70
7232;DHT22;3657;49.630;11.018;2023-06-14T15:27:53;26.80;47.20
7232;DHT22;3657;49.630;11.018;2023-06-14T15:30:20;27.10;46.80
7232;DHT22;3657;49.630;11.018;2023-06-14T15:32:46;27.00;47.40
7232;DHT22;3657;49.630;11.018;2023-06-14T15:35:16;26.60;46.20
7232;DHT22;3657;49.630;11.018;2023-06-14T15:37:42;26.10;47.50
7232;DHT22;3657;49.630;11.018;2023-06-14T15:40:10;26.10;47.20
7232;DHT22;3657;49.630;11.018;2023-06-14T15:42:37;26.30;47.90
7232;DHT22;3657;49.630;11.018;2023-06-14T15:45:04;26.70;47.00
7232;DHT22;3657;49.630;11.018;2023-06-14T15:47:31;26.70;46.60
7232;DHT22;3657;49.630;11.018;2023-06-14T15:49:58;26.70;46.80